Terminal Aerodrome Forecast
Issued by NWS

Home | Current Version | Previous Version | Text Only | Print | Product List | Glossary Off
Versions: 1 2 3 4 5 6 7 8 9 10 11 12 13 14 15 16 17

000
FTUS43 KGRB 210900 AAA
TAFRHI
TAF AMD
KRHI 210930Z 2110/2206 VRB02KT 1/4SM FG VV002
      TEMPO 2110/2113 1SM BR VV005
     FM211400 23004KT 6SM BR SCT040 SCT100
     FM211600 26006KT P6SM SCT040 BKN070
     FM212100 30008KT P6SM SCT040 SCT090
     FM220100 33009KT P6SM SCT025=

USA.gov is the U.S. government's official web portal to all federal, state and local government web resources and services.